createdAt,value
2018-10-19T00:00:39.485Z,13.90
2018-10-19T00:03:08.148Z,13.90
2018-10-19T00:05:36.746Z,13.80
2018-10-19T00:08:05.974Z,13.80
2018-10-19T00:10:45.467Z,13.70
2018-10-19T00:13:15.969Z,13.70
2018-10-19T00:15:44.629Z,13.80
2018-10-19T00:18:13.268Z,13.80
2018-10-19T00:20:42.021Z,13.70
2018-10-19T00:23:10.781Z,13.70
2018-10-19T00:25:39.379Z,13.70
2018-10-19T00:28:07.970Z,13.60
2018-10-19T00:30:36.554Z,13.50
2018-10-19T00:33:05.195Z,13.60
2018-10-19T00:35:33.768Z,13.60
2018-10-19T00:38:02.687Z,13.60
2018-10-19T00:40:31.341Z,13.50
2018-10-19T00:43:00.474Z,13.40
2018-10-19T00:45:34.741Z,13.40
2018-10-19T00:48:14.339Z,13.30
2018-10-19T00:50:43.297Z,13.30
2018-10-19T00:53:12.547Z,13.20
2018-10-19T00:55:41.268Z,13.20
2018-10-19T00:58:10.659Z,13.20
2018-10-19T01:00:40.374Z,13.20
2018-10-19T01:03:09.462Z,13.20
2018-10-19T01:05:38.961Z,13.10
2018-10-19T01:08:08.688Z,13.10
2018-10-19T01:10:37.353Z,13.10
2018-10-19T01:13:06.164Z,13.10
2018-10-19T01:15:34.808Z,13.20
2018-10-19T01:18:03.553Z,13.10
2018-10-19T01:20:32.125Z,13.10
2018-10-19T01:23:00.742Z,13.10
2018-10-19T01:25:29.336Z,13.10
2018-10-19T01:27:58.002Z,13.10
2018-10-19T01:30:26.676Z,13.00
2018-10-19T01:32:55.369Z,13.00
2018-10-19T01:35:23.985Z,13.00
2018-10-19T01:37:52.594Z,13.00
2018-10-19T01:40:21.188Z,13.10
2018-10-19T01:42:49.780Z,13.10
2018-10-19T01:45:18.448Z,13.30
2018-10-19T01:47:47.085Z,13.30
2018-10-19T01:50:15.673Z,13.30
2018-10-19T01:52:44.256Z,13.30
2018-10-19T01:55:12.835Z,13.20
2018-10-19T01:57:41.420Z,13.20
2018-10-19T02:00:10.103Z,13.10
2018-10-19T02:02:38.677Z,13.00
2018-10-19T02:05:07.505Z,12.90
2018-10-19T02:07:36.085Z,12.90
2018-10-19T02:10:05.788Z,12.80
2018-10-19T02:12:34.375Z,12.70
2018-10-19T02:15:03.076Z,12.60
2018-10-19T02:17:31.693Z,12.50
2018-10-19T02:20:00.313Z,12.50
2018-10-19T02:22:28.917Z,12.40
2018-10-19T02:24:57.539Z,12.30
2018-10-19T02:27:26.170Z,12.20
2018-10-19T02:29:54.739Z,12.20
2018-10-19T02:32:23.398Z,12.30
2018-10-19T02:34:51.997Z,12.30
2018-10-19T02:37:20.628Z,12.40
2018-10-19T02:39:49.241Z,12.30
2018-10-19T02:42:17.808Z,12.40
2018-10-19T02:44:46.453Z,12.40
2018-10-19T02:47:15.782Z,12.40
2018-10-19T02:49:44.296Z,12.30
2018-10-19T02:52:12.928Z,12.20
2018-10-19T02:54:41.565Z,12.10
2018-10-19T02:57:10.203Z,12.10
2018-10-19T02:59:38.811Z,12.10
2018-10-19T03:02:07.424Z,12.10
2018-10-19T03:04:36.034Z,12.10
2018-10-19T03:07:06.749Z,12.10
2018-10-19T03:09:35.366Z,12.10
2018-10-19T03:12:04.001Z,12.10
2018-10-19T03:14:32.592Z,12.10
2018-10-19T03:17:02.013Z,12.20
2018-10-19T03:19:30.704Z,12.50
2018-10-19T03:21:59.311Z,12.70
2018-10-19T03:24:27.956Z,12.80
2018-10-19T03:26:56.642Z,12.90
2018-10-19T03:29:26.176Z,13.10
2018-10-19T03:31:54.893Z,13.10
2018-10-19T03:34:23.493Z,12.90
2018-10-19T03:36:52.681Z,12.70
2018-10-19T03:39:21.289Z,12.50
2018-10-19T03:41:49.904Z,12.40
2018-10-19T03:44:18.510Z,12.20
2018-10-19T03:46:47.098Z,12.00
2018-10-19T03:49:15.810Z,11.80
2018-10-19T03:51:44.381Z,11.80
2018-10-19T03:54:13.048Z,11.70
2018-10-19T03:56:41.638Z,11.60
2018-10-19T03:59:10.332Z,11.50
2018-10-19T04:01:38.913Z,11.50
2018-10-19T04:04:07.518Z,11.40
2018-10-19T04:06:36.172Z,11.40
2018-10-19T04:09:07.898Z,11.40
2018-10-19T04:11:36.498Z,11.50
2018-10-19T04:14:05.797Z,11.50
2018-10-19T04:16:34.496Z,11.60
2018-10-19T04:19:03.253Z,11.60
2018-10-19T04:21:32.368Z,11.60
2018-10-19T04:24:01.184Z,11.60
2018-10-19T04:26:30.038Z,11.50
2018-10-19T04:28:58.814Z,11.60
2018-10-19T04:31:27.563Z,11.50
2018-10-19T04:33:56.357Z,11.50
2018-10-19T04:36:25.670Z,11.40
2018-10-19T04:38:54.427Z,11.40
2018-10-19T04:41:23.139Z,11.40
2018-10-19T04:43:51.831Z,11.40
2018-10-19T04:46:23.994Z,11.40
2018-10-19T04:48:52.783Z,11.30
2018-10-19T04:51:21.545Z,11.20
2018-10-19T04:53:50.402Z,11.20
2018-10-19T04:56:19.087Z,11.10
2018-10-19T04:58:53.322Z,11.00
2018-10-19T05:01:22.022Z,11.00
2018-10-19T05:03:51.116Z,11.10
2018-10-19T05:06:20.065Z,11.10
2018-10-19T05:08:49.150Z,11.20
2018-10-19T05:11:18.153Z,11.20
2018-10-19T05:13:46.999Z,11.00
2018-10-19T05:16:15.853Z,11.00
2018-10-19T05:18:44.579Z,11.30
2018-10-19T05:21:13.664Z,11.50
2018-10-19T05:23:42.381Z,11.50
2018-10-19T05:26:11.177Z,11.60
2018-10-19T05:28:40.374Z,11.80
2018-10-19T05:31:09.024Z,12.00
2018-10-19T05:33:39.497Z,12.10
2018-10-19T05:36:08.212Z,11.90
2018-10-19T05:38:36.975Z,11.70
2018-10-19T05:41:05.703Z,11.50
2018-10-19T05:43:34.525Z,11.30
2018-10-19T05:46:03.121Z,11.20
2018-10-19T05:48:31.818Z,11.20
2018-10-19T05:51:00.584Z,11.20
2018-10-19T05:53:29.297Z,11.10
2018-10-19T05:55:57.972Z,11.00
2018-10-19T05:58:26.709Z,10.90
2018-10-19T06:00:55.985Z,10.90
2018-10-19T06:03:24.697Z,10.90
2018-10-19T06:05:55.006Z,10.90
2018-10-19T06:08:23.712Z,10.90
2018-10-19T06:10:52.442Z,11.10
2018-10-19T06:13:21.124Z,11.20
2018-10-19T06:15:49.764Z,11.30
2018-10-19T06:18:18.516Z,11.60
2018-10-19T06:20:47.290Z,11.90
2018-10-19T06:23:16.066Z,12.00
2018-10-19T06:25:44.818Z,12.10
2018-10-19T06:28:13.438Z,12.20
2018-10-19T06:30:42.091Z,12.30
2018-10-19T06:33:10.866Z,12.50
2018-10-19T06:35:40.861Z,12.70
2018-10-19T06:38:09.511Z,12.80
2018-10-19T06:40:38.274Z,13.00
2018-10-19T06:43:06.913Z,13.20
2018-10-19T06:45:36.043Z,13.20
2018-10-19T06:48:05.213Z,13.40
2018-10-19T06:50:33.819Z,13.60
2018-10-19T06:53:02.929Z,13.90
2018-10-19T06:55:31.526Z,14.10
2018-10-19T06:58:00.284Z,14.40
2018-10-19T07:00:28.896Z,14.80
2018-10-19T07:02:57.788Z,15.20
2018-10-19T07:05:26.403Z,15.50
2018-10-19T07:07:54.972Z,15.40
2018-10-19T07:10:23.545Z,15.50
2018-10-19T07:12:52.176Z,15.80
2018-10-19T07:15:20.786Z,16.10
2018-10-19T07:17:49.313Z,16.30
2018-10-19T07:20:17.886Z,16.50
2018-10-19T07:22:46.458Z,16.80
2018-10-19T07:25:15.389Z,17.10
2018-10-19T07:27:43.959Z,17.10
2018-10-19T07:30:12.549Z,17.20
2018-10-19T07:32:41.204Z,17.40
2018-10-19T07:35:09.795Z,17.60
2018-10-19T07:37:38.557Z,18.00
2018-10-19T07:40:07.416Z,18.40
2018-10-19T07:42:36.021Z,18.60
2018-10-19T07:45:05.449Z,18.80
2018-10-19T07:47:34.107Z,19.00
2018-10-19T07:50:02.797Z,18.90
2018-10-19T07:52:31.376Z,19.10
2018-10-19T07:54:59.963Z,19.10
2018-10-19T07:57:28.537Z,19.40
2018-10-19T07:59:57.198Z,19.80
2018-10-19T08:02:25.732Z,20.00
2018-10-19T08:04:54.349Z,20.40
2018-10-19T08:07:22.855Z,20.90
2018-10-19T08:09:51.427Z,21.30
2018-10-19T08:12:20.039Z,21.60
2018-10-19T08:14:48.638Z,21.80
2018-10-19T08:17:17.301Z,22.20
2018-10-19T08:19:46.057Z,22.50
2018-10-19T08:22:14.663Z,22.60
2018-10-19T08:24:43.328Z,22.60
2018-10-19T08:27:11.982Z,22.60
2018-10-19T08:29:41.079Z,22.70
2018-10-19T08:32:09.825Z,23.10
2018-10-19T08:34:38.521Z,23.10
2018-10-19T08:37:07.117Z,23.40
2018-10-19T08:39:35.683Z,23.80
2018-10-19T08:42:04.884Z,24.10
2018-10-19T08:44:33.484Z,23.90
2018-10-19T08:47:02.126Z,23.60
2018-10-19T08:49:30.786Z,23.70
2018-10-19T08:51:59.611Z,23.50
2018-10-19T08:54:28.203Z,23.60
2018-10-19T08:56:56.846Z,23.90
2018-10-19T08:59:25.401Z,24.00
2018-10-19T09:01:54.058Z,24.50
2018-10-19T09:04:22.691Z,24.70
2018-10-19T09:06:51.281Z,24.80
2018-10-19T09:09:20.139Z,24.80
2018-10-19T09:11:48.784Z,24.80
2018-10-19T09:14:34.193Z,25.00
2018-10-19T09:17:02.881Z,25.00
2018-10-19T09:19:31.451Z,25.40
2018-10-19T09:22:00.108Z,25.40
2018-10-19T09:24:28.688Z,25.60
2018-10-19T09:26:57.368Z,25.50
2018-10-19T09:29:26.279Z,25.80
2018-10-19T09:31:54.921Z,25.80
2018-10-19T09:34:23.574Z,25.70
2018-10-19T09:36:52.296Z,25.80
2018-10-19T09:39:26.556Z,25.90
2018-10-19T09:41:55.271Z,25.80
2018-10-19T09:44:23.856Z,25.90
2018-10-19T09:46:52.424Z,26.00
2018-10-19T09:49:21.462Z,26.60
2018-10-19T09:51:49.996Z,26.70
2018-10-19T09:54:18.556Z,26.70
2018-10-19T09:56:47.081Z,26.70
2018-10-19T09:59:15.884Z,26.80
2018-10-19T10:01:44.415Z,27.00
2018-10-19T10:04:13.366Z,27.00
2018-10-19T10:06:47.666Z,27.00
2018-10-19T10:09:17.031Z,26.90
2018-10-19T10:11:45.661Z,27.00
2018-10-19T10:14:14.318Z,27.30
2018-10-19T10:16:42.911Z,27.40
2018-10-19T10:19:11.587Z,27.40
2018-10-19T10:21:45.579Z,27.90
2018-10-19T10:24:14.204Z,27.90
2018-10-19T10:26:42.891Z,27.30
2018-10-19T10:29:11.471Z,27.10
2018-10-19T10:31:40.009Z,27.40
2018-10-19T10:34:08.630Z,27.60
2018-10-19T10:36:37.169Z,27.90
2018-10-19T10:39:10.681Z,28.00
2018-10-19T10:41:39.271Z,28.30
2018-10-19T10:44:07.990Z,28.30
2018-10-19T10:46:36.718Z,28.60
2018-10-19T10:49:10.941Z,28.90
2018-10-19T10:51:39.471Z,29.00
2018-10-19T10:54:08.046Z,28.70
2018-10-19T10:56:36.623Z,28.90
2018-10-19T10:59:05.449Z,28.90
2018-10-19T11:01:33.990Z,29.20
2018-10-19T11:04:02.685Z,29.20
2018-10-19T11:06:31.348Z,29.20
2018-10-19T11:08:59.953Z,29.70
2018-10-19T11:11:28.573Z,30.10
2018-10-19T11:13:57.196Z,30.10
2018-10-19T11:16:25.833Z,29.90
2018-10-19T11:18:54.438Z,29.60
2018-10-19T11:21:23.009Z,29.50
2018-10-19T11:23:57.179Z,29.30
2018-10-19T11:26:25.775Z,30.00
2018-10-19T11:28:54.378Z,29.70
2018-10-19T11:31:23.001Z,29.60
2018-10-19T11:33:51.561Z,29.30
2018-10-19T11:36:20.179Z,29.50
2018-10-19T11:38:48.847Z,29.60
2018-10-19T11:41:17.545Z,29.20
2018-10-19T11:43:46.163Z,29.10
2018-10-19T11:46:14.901Z,29.50
2018-10-19T11:48:44.260Z,29.30
2018-10-19T11:51:12.874Z,29.50
2018-10-19T11:53:41.434Z,29.40
2018-10-19T11:56:10.041Z,29.20
2018-10-19T11:58:38.678Z,29.30
2018-10-19T12:01:07.220Z,29.80
2018-10-19T12:03:35.832Z,29.70
2018-10-19T12:06:04.621Z,29.70
2018-10-19T12:08:33.149Z,29.50
2018-10-19T12:11:01.679Z,29.50
2018-10-19T12:13:30.568Z,29.40
2018-10-19T12:15:59.178Z,29.10
2018-10-19T12:18:27.721Z,29.10
2018-10-19T12:20:56.283Z,28.90
2018-10-19T12:23:24.853Z,28.90
2018-10-19T12:25:58.835Z,28.90
2018-10-19T12:28:33.001Z,29.00
2018-10-19T12:31:01.684Z,29.50
2018-10-19T12:33:30.193Z,29.30
2018-10-19T12:35:58.753Z,29.30
2018-10-19T12:38:27.276Z,29.40
2018-10-19T12:40:55.803Z,29.60
2018-10-19T12:43:24.456Z,29.30
2018-10-19T12:46:36.343Z,29.20
2018-10-19T12:49:05.370Z,29.60
2018-10-19T12:51:34.388Z,29.60
2018-10-19T12:54:09.051Z,29.80
2018-10-19T12:56:37.609Z,29.40
2018-10-19T12:59:06.848Z,29.70
2018-10-19T13:01:35.395Z,29.70
2018-10-19T13:04:04.221Z,29.30
2018-10-19T13:06:32.836Z,29.00
2018-10-19T13:09:01.471Z,29.20
2018-10-19T13:11:29.999Z,29.00
2018-10-19T13:13:58.619Z,29.40
2018-10-19T13:16:27.192Z,29.60
2018-10-19T13:18:55.725Z,29.60
2018-10-19T13:21:24.295Z,29.50
2018-10-19T13:23:52.983Z,29.10
2018-10-19T13:26:22.244Z,28.90
2018-10-19T13:28:50.865Z,28.40
2018-10-19T13:31:20.235Z,28.30
2018-10-19T13:33:48.869Z,28.60
2018-10-19T13:36:17.524Z,28.90
2018-10-19T13:38:47.052Z,29.00
2018-10-19T13:41:15.714Z,29.10
2018-10-19T13:43:45.441Z,29.10
2018-10-19T13:46:14.028Z,29.30
2018-10-19T13:48:42.596Z,29.50
2018-10-19T13:51:11.358Z,29.60
2018-10-19T13:53:39.951Z,29.60
2018-10-19T13:56:08.556Z,29.00
2018-10-19T13:58:37.114Z,28.90
2018-10-19T14:01:06.770Z,29.20
2018-10-19T14:03:35.476Z,29.40
2018-10-19T14:06:04.084Z,30.00
2018-10-19T14:08:33.246Z,29.90
2018-10-19T14:11:01.893Z,30.10
2018-10-19T14:13:30.529Z,30.20
2018-10-19T14:15:59.077Z,30.50
2018-10-19T14:18:28.117Z,30.30
2018-10-19T14:20:56.724Z,29.40
2018-10-19T14:23:25.289Z,29.10
2018-10-19T14:25:53.891Z,28.90
2018-10-19T14:28:22.474Z,28.90
2018-10-19T14:30:52.063Z,29.30
2018-10-19T14:33:21.231Z,29.20
2018-10-19T14:35:49.676Z,29.40
2018-10-19T14:38:18.211Z,29.20
2018-10-19T14:40:46.811Z,28.40
2018-10-19T14:43:20.981Z,28.00
2018-10-19T14:45:50.581Z,27.40
2018-10-19T14:48:19.159Z,27.20
2018-10-19T14:50:47.846Z,27.60
2018-10-19T14:53:16.646Z,27.70
2018-10-19T14:55:45.169Z,27.80
2018-10-19T14:58:14.199Z,27.80
2018-10-19T15:00:42.823Z,27.50
2018-10-19T15:03:11.490Z,27.20
2018-10-19T15:05:40.010Z,26.70
2018-10-19T15:08:08.609Z,25.90
2018-10-19T15:10:38.358Z,25.50
2018-10-19T15:13:12.178Z,25.00
2018-10-19T15:15:40.758Z,24.50
2018-10-19T15:18:09.426Z,24.00
2018-10-19T15:20:38.057Z,23.80
2018-10-19T15:23:06.646Z,23.70
2018-10-19T15:25:35.279Z,23.50
2018-10-19T15:28:03.952Z,23.40
2018-10-19T15:30:32.538Z,23.30
2018-10-19T15:33:01.246Z,23.10
2018-10-19T15:35:29.815Z,22.90
2018-10-19T15:37:58.517Z,22.80
2018-10-19T15:40:27.078Z,22.70
2018-10-19T15:42:55.693Z,22.60
2018-10-19T15:45:24.390Z,22.50
2018-10-19T15:47:52.983Z,22.30
2018-10-19T15:50:21.615Z,22.20
2018-10-19T15:52:50.773Z,22.00
2018-10-19T15:55:19.315Z,21.90
2018-10-19T15:57:47.885Z,21.80
2018-10-19T16:00:25.736Z,21.70
2018-10-19T16:02:54.630Z,21.60
2018-10-19T16:05:23.348Z,21.50
2018-10-19T16:07:51.971Z,21.40
2018-10-19T16:13:21.233Z,21.20
2018-10-19T16:15:49.797Z,21.10
2018-10-19T16:18:26.668Z,21.00
2018-10-19T16:30:21.535Z,21.30
2018-10-19T16:35:50.153Z,21.30
2018-10-19T16:41:19.233Z,20.90
2018-10-19T16:55:53.787Z,20.30
2018-10-19T16:58:22.359Z,20.20
2018-10-19T17:03:58.652Z,20.20
2018-10-19T17:06:27.285Z,20.20
2018-10-19T17:14:55.716Z,19.90
2018-10-19T17:20:24.546Z,19.90
2018-10-19T17:32:11.056Z,19.70
2018-10-19T17:37:40.794Z,19.40
2018-10-19T17:40:25.529Z,19.30
2018-10-19T17:42:55.761Z,19.20
2018-10-19T17:48:24.598Z,19.10
2018-10-19T17:50:53.186Z,19.10
2018-10-19T17:53:28.289Z,19.00
2018-10-19T17:55:56.837Z,19.10
2018-10-19T17:58:26.644Z,19.00
2018-10-19T18:04:20.462Z,19.00
2018-10-19T18:09:49.317Z,18.70
2018-10-19T18:15:26.624Z,18.50
2018-10-19T18:17:55.251Z,18.40
2018-10-19T18:20:27.323Z,18.30
2018-10-19T18:29:16.264Z,18.20
2018-10-19T18:34:45.652Z,18.10
2018-10-19T18:43:14.589Z,17.50
2018-10-19T18:45:43.193Z,17.40
2018-10-19T18:57:29.121Z,17.30
2018-10-19T19:02:57.378Z,17.40
2018-10-19T19:11:26.103Z,17.30
2018-10-19T19:13:54.672Z,17.20
2018-10-19T19:16:28.610Z,17.10
2018-10-19T19:21:57.649Z,17.00
2018-10-19T19:24:38.141Z,16.40
2018-10-19T19:33:14.683Z,16.20
2018-10-19T19:51:27.291Z,16.40
2018-10-19T19:57:21.101Z,16.30
2018-10-19T20:00:02.051Z,16.10
2018-10-19T20:02:30.651Z,16.10
2018-10-19T20:04:59.216Z,16.00
2018-10-19T20:07:28.871Z,16.00
2018-10-19T20:12:57.301Z,15.80
2018-10-19T20:15:38.350Z,15.70
2018-10-19T20:18:06.980Z,15.60
2018-10-19T20:29:39.946Z,15.30
2018-10-19T20:32:25.219Z,15.10
2018-10-19T20:35:00.225Z,15.00
2018-10-19T20:37:28.907Z,14.90
2018-10-19T20:39:57.671Z,14.90
2018-10-19T20:48:26.761Z,14.80
2018-10-19T20:59:57.559Z,14.40
2018-10-19T21:11:40.192Z,14.20
2018-10-19T21:20:34.481Z,14.10
2018-10-19T21:26:24.097Z,14.10
2018-10-19T21:37:52.991Z,13.90
2018-10-19T21:40:21.635Z,13.90
2018-10-19T21:57:54.753Z,13.70
2018-10-19T22:00:28.961Z,13.70
2018-10-19T22:02:57.577Z,13.60
2018-10-19T22:05:26.428Z,13.60
2018-10-19T22:13:55.656Z,13.30
2018-10-19T22:19:24.218Z,13.20
2018-10-19T22:24:53.384Z,13.20
2018-10-19T22:27:47.175Z,13.20
2018-10-19T22:33:22.133Z,13.20
2018-10-19T22:47:51.483Z,12.90
2018-10-19T22:56:20.180Z,12.80
2018-10-19T22:59:14.144Z,12.70
2018-10-19T23:02:07.540Z,12.60
2018-10-19T23:16:39.161Z,12.40
2018-10-19T23:19:26.608Z,12.30
2018-10-19T23:40:09.003Z,12.20
2018-10-19T23:54:51.755Z,12.00
2018-10-19T23:57:21.326Z,12.00
